Main page
METAR-TAF:

METAR-TAF

Airports :

Windom Municipal Airport

Windom, Minnesota, United States

latitude: 43-54-48N, longitude: 095-06-34W, elevation: 1410 ft

Current weather observation

The report was made 10 minutes ago, at 22:15 UTC
Wind 6 mph from the South with gusts up to 9 mph
Temperature 64°F
Humidity 26%
Pressure 30.13 in. Hg
Visibility: 10 miles
Clear sky

METAR: KMWM 242215Z AUTO 18005G08KT 10SM CLR 18/M02 A3013 RMK AO2

Time: 17:25 (22:25 UTC)


TAF: missing

Weather observations and forecasts of more than 4000 airports (METAR and TAF reports).

The available stations are represented by yellow and red dots on the map.

Hover mouse over dot to see the name of the station.

Then click to see weather observations and forecasts.

To change the map : click on the green buttons with a black cross to zoom in, on the green button with a dash to zoom out, or on the green arrows for adjacent maps.


METAR-TAF: